createdAt,value
2022-09-01T00:00:03.065Z,24.92
2022-09-01T00:02:31.177Z,24.96
2022-09-01T00:04:59.140Z,24.96
2022-09-01T00:07:30.733Z,24.98
2022-09-01T00:10:02.130Z,25.02
2022-09-01T00:12:30.106Z,25.04
2022-09-01T00:14:57.491Z,25.05
2022-09-01T00:17:25.392Z,25.03
2022-09-01T00:19:52.685Z,25.00
2022-09-01T00:22:19.712Z,24.97
2022-09-01T00:24:47.118Z,24.95
2022-09-01T00:27:14.174Z,24.96
2022-09-01T00:29:43.338Z,24.93
2022-09-01T00:32:11.931Z,24.91
2022-09-01T00:34:39.799Z,24.90
2022-09-01T00:37:07.149Z,24.92
2022-09-01T00:39:34.323Z,24.89
2022-09-01T00:42:01.540Z,24.88
2022-09-01T00:44:29.581Z,24.91
2022-09-01T00:46:59.821Z,24.96
2022-09-01T00:49:39.829Z,25.00
2022-09-01T00:52:22.670Z,25.02
2022-09-01T00:54:53.503Z,25.04
2022-09-01T00:57:21.669Z,25.07
2022-09-01T01:00:02.336Z,25.11
2022-09-01T01:02:29.650Z,25.11
2022-09-01T01:05:00.870Z,25.10
2022-09-01T01:07:29.200Z,25.13
2022-09-01T01:09:56.904Z,25.14
2022-09-01T01:12:24.011Z,25.16
2022-09-01T01:14:51.754Z,25.19
2022-09-01T01:17:21.647Z,25.19
2022-09-01T01:20:16.340Z,25.16
2022-09-01T01:23:09.287Z,25.12
2022-09-01T01:25:45.020Z,25.08
2022-09-01T01:28:16.772Z,25.08
2022-09-01T01:30:51.499Z,25.03
2022-09-01T01:33:23.330Z,24.97
2022-09-01T01:35:52.322Z,24.94
2022-09-01T01:38:23.223Z,24.93
2022-09-01T01:40:52.048Z,24.88
2022-09-01T01:43:23.609Z,24.81
2022-09-01T01:45:55.434Z,24.80
2022-09-01T01:48:24.304Z,24.79
2022-09-01T01:50:56.113Z,24.76
2022-09-01T01:53:23.352Z,24.76
2022-09-01T01:55:50.851Z,24.78
2022-09-01T01:58:20.218Z,24.79
2022-09-01T02:00:49.276Z,24.82
2022-09-01T02:03:19.396Z,24.79
2022-09-01T02:05:49.188Z,24.78
2022-09-01T02:08:18.704Z,24.80
2022-09-01T02:10:48.136Z,24.80
2022-09-01T02:13:17.104Z,24.69
2022-09-01T02:15:54.739Z,24.69
2022-09-01T02:18:27.337Z,24.72
2022-09-01T02:20:56.083Z,24.75
2022-09-01T02:23:24.779Z,24.77
2022-09-01T02:26:15.494Z,24.75
2022-09-01T02:28:44.495Z,24.71
2022-09-01T02:31:12.643Z,24.68
2022-09-01T02:33:44.410Z,24.70
2022-09-01T02:36:14.570Z,24.72
2022-09-01T02:38:46.700Z,24.69
2022-09-01T02:41:15.362Z,24.71
2022-09-01T02:43:46.562Z,24.73
2022-09-01T02:46:16.116Z,24.74
2022-09-01T02:48:46.404Z,24.74
2022-09-01T02:51:17.422Z,24.69
2022-09-01T02:53:48.326Z,24.39
2022-09-01T02:56:15.679Z,24.26
2022-09-01T02:58:47.235Z,24.24
2022-09-01T03:01:22.957Z,24.34
2022-09-01T03:03:55.834Z,24.40
2022-09-01T03:06:24.708Z,24.44
2022-09-01T03:08:59.967Z,24.47
2022-09-01T03:11:29.764Z,24.53
2022-09-01T03:13:57.167Z,24.58
2022-09-01T03:16:24.794Z,24.63
2022-09-01T03:18:52.316Z,24.66
2022-09-01T03:21:21.207Z,24.60
2022-09-01T03:23:49.458Z,24.55
2022-09-01T03:26:19.148Z,24.51
2022-09-01T03:28:47.152Z,24.53
2022-09-01T03:31:14.434Z,24.51
2022-09-01T03:33:42.449Z,24.51
2022-09-01T03:36:15.341Z,24.48
2022-09-01T03:38:44.352Z,24.27
2022-09-01T03:41:13.564Z,24.13
2022-09-01T03:43:45.966Z,24.11
2022-09-01T03:46:24.650Z,24.15
2022-09-01T03:48:58.906Z,24.16
2022-09-01T03:51:26.623Z,24.18
2022-09-01T03:53:55.241Z,24.20
2022-09-01T03:56:27.599Z,24.22
2022-09-01T03:59:00.324Z,24.28
2022-09-01T04:01:33.982Z,24.33
2022-09-01T04:04:01.655Z,24.16
2022-09-01T04:06:30.754Z,24.10
2022-09-01T04:09:03.492Z,24.01
2022-09-01T04:11:32.230Z,23.93
2022-09-01T04:14:00.385Z,23.88
2022-09-01T04:16:49.812Z,23.97
2022-09-01T04:19:25.720Z,23.97
2022-09-01T04:22:00.168Z,23.92
2022-09-01T04:24:32.082Z,23.91
2022-09-01T04:27:02.514Z,23.98
2022-09-01T04:29:32.186Z,23.97
2022-09-01T04:32:10.022Z,23.95
2022-09-01T04:34:38.915Z,23.97
2022-09-01T04:37:13.456Z,23.92
2022-09-01T04:39:52.575Z,23.87
2022-09-01T04:42:24.429Z,23.88
2022-09-01T04:44:57.896Z,23.86
2022-09-01T04:47:36.158Z,23.86
2022-09-01T04:50:06.214Z,23.93
2022-09-01T04:52:33.358Z,23.97
2022-09-01T04:55:00.895Z,23.99
2022-09-01T04:57:27.965Z,23.94
2022-09-01T04:59:57.177Z,23.92
2022-09-01T05:02:27.422Z,23.83
2022-09-01T05:04:55.475Z,23.82
2022-09-01T05:07:23.944Z,23.74
2022-09-01T05:09:57.995Z,23.68
2022-09-01T05:12:27.942Z,23.61
2022-09-01T05:14:56.340Z,23.57
2022-09-01T05:17:23.664Z,23.49
2022-09-01T05:19:51.354Z,23.47
2022-09-01T05:22:23.373Z,23.47
2022-09-01T05:24:54.995Z,23.50
2022-09-01T05:27:23.150Z,23.56
2022-09-01T05:29:50.756Z,23.64
2022-09-01T05:32:17.963Z,23.71
2022-09-01T05:34:46.360Z,23.76
2022-09-01T05:37:14.819Z,23.85
2022-09-01T05:39:42.458Z,23.94
2022-09-01T05:42:09.649Z,24.06
2022-09-01T05:44:39.697Z,24.15
2022-09-01T05:47:09.214Z,24.23
2022-09-01T05:49:36.429Z,24.24
2022-09-01T05:52:03.747Z,24.20
2022-09-01T05:54:30.915Z,24.14
2022-09-01T05:57:17.487Z,24.01
2022-09-01T05:59:54.322Z,23.86
2022-09-01T06:02:23.608Z,23.77
2022-09-01T06:04:50.853Z,23.73
2022-09-01T06:07:25.279Z,23.67
2022-09-01T06:09:53.961Z,23.67
2022-09-01T06:12:24.164Z,23.61
2022-09-01T06:14:54.071Z,23.55
2022-09-01T06:17:25.692Z,23.55
2022-09-01T06:19:56.463Z,23.55
2022-09-01T06:22:25.420Z,23.61
2022-09-01T06:24:59.565Z,23.63
2022-09-01T06:27:29.664Z,23.66
2022-09-01T06:29:58.521Z,23.59
2022-09-01T06:32:36.320Z,23.54
2022-09-01T06:35:05.914Z,23.54
2022-09-01T06:37:35.460Z,23.56
2022-09-01T06:40:04.070Z,23.59
2022-09-01T06:42:35.424Z,23.59
2022-09-01T06:45:02.619Z,23.59
2022-09-01T06:47:30.091Z,23.60
2022-09-01T06:49:59.198Z,23.56
2022-09-01T06:52:27.025Z,23.53
2022-09-01T06:54:54.685Z,23.53
2022-09-01T07:00:21.547Z,23.53
2022-09-01T07:02:55.084Z,23.47
2022-09-01T07:08:13.734Z,23.41
2022-09-01T07:13:36.389Z,23.42
2022-09-01T07:18:59.081Z,23.37
2022-09-01T07:24:18.469Z,23.40
2022-09-01T07:26:50.961Z,23.42
2022-09-01T07:29:20.295Z,23.46
2022-09-01T07:31:52.024Z,23.48
2022-09-01T07:34:39.696Z,23.49
2022-09-01T07:39:56.466Z,23.51
2022-09-01T07:42:31.434Z,23.39
2022-09-01T07:45:29.197Z,23.58
2022-09-01T07:47:59.723Z,23.61
2022-09-01T07:53:21.983Z,23.67
2022-09-01T07:55:51.528Z,23.73
2022-09-01T07:58:25.137Z,23.78
2022-09-01T08:00:53.639Z,23.82
2022-09-01T08:03:23.828Z,23.89
2022-09-01T08:05:55.930Z,23.89
2022-09-01T08:08:27.947Z,23.88
2022-09-01T08:11:04.255Z,23.91
2022-09-01T08:13:40.733Z,23.91
2022-09-01T08:16:18.216Z,23.94
2022-09-01T08:18:49.182Z,23.97
2022-09-01T08:21:19.264Z,24.03
2022-09-01T08:23:48.101Z,24.08
2022-09-01T08:26:17.787Z,24.14
2022-09-01T08:28:46.480Z,24.21
2022-09-01T08:31:18.086Z,24.32
2022-09-01T08:33:47.731Z,24.40
2022-09-01T08:36:21.410Z,24.44
2022-09-01T08:38:51.324Z,24.47
2022-09-01T08:41:28.790Z,24.48
2022-09-01T08:44:10.051Z,24.47
2022-09-01T08:46:43.318Z,24.50
2022-09-01T08:49:26.255Z,24.50
2022-09-01T08:52:20.987Z,24.55
2022-09-01T08:54:57.204Z,24.59
2022-09-01T08:57:27.713Z,24.65
2022-09-01T08:59:54.831Z,24.65
2022-09-01T09:02:48.066Z,24.61
2022-09-01T09:05:17.866Z,24.56
2022-09-01T09:07:51.813Z,24.62
2022-09-01T09:10:24.593Z,24.62
2022-09-01T09:13:31.826Z,24.69
2022-09-01T09:16:26.692Z,24.75
2022-09-01T09:18:59.994Z,24.80
2022-09-01T09:21:47.379Z,24.76
2022-09-01T09:24:52.746Z,24.78
2022-09-01T09:27:42.397Z,24.84
2022-09-01T09:30:11.799Z,24.85
2022-09-01T09:35:46.845Z,24.89
2022-09-01T09:38:21.036Z,24.93
2022-09-01T09:41:19.942Z,24.93
2022-09-01T09:43:59.200Z,24.96
2022-09-01T09:46:32.586Z,24.97
2022-09-01T09:49:36.178Z,24.96
2022-09-01T09:52:03.743Z,24.91
2022-09-01T09:54:33.456Z,24.91
2022-09-01T09:57:09.657Z,24.89
2022-09-01T10:00:01.233Z,24.89
2022-09-01T10:02:37.705Z,24.85
2022-09-01T10:05:25.402Z,24.78
2022-09-01T10:07:53.505Z,24.74
2022-09-01T10:10:57.702Z,24.74
2022-09-01T10:13:29.444Z,24.69
2022-09-01T10:16:03.853Z,24.71
2022-09-01T10:18:45.155Z,24.70
2022-09-01T10:21:35.619Z,24.72
2022-09-01T10:24:17.730Z,24.71
2022-09-01T10:26:52.434Z,24.71
2022-09-01T10:29:27.944Z,24.73
2022-09-01T10:32:21.295Z,24.71
2022-09-01T10:34:45.402Z,24.63
2022-09-01T10:37:16.018Z,24.58
2022-09-01T10:40:30.388Z,24.55
2022-09-01T10:43:19.987Z,24.51
2022-09-01T10:45:53.338Z,24.53
2022-09-01T10:48:46.265Z,24.51
2022-09-01T10:51:21.013Z,24.45
2022-09-01T10:53:53.213Z,24.40
2022-09-01T10:56:50.804Z,24.36
2022-09-01T10:59:35.689Z,24.34
2022-09-01T11:02:27.935Z,24.36
2022-09-01T11:04:55.504Z,24.35
2022-09-01T11:07:44.324Z,24.31
2022-09-01T11:10:35.595Z,24.25
2022-09-01T11:13:23.474Z,24.29
2022-09-01T11:15:50.723Z,24.29
2022-09-01T11:18:27.506Z,24.29
2022-09-01T11:20:56.435Z,24.31
2022-09-01T11:23:31.788Z,24.29
2022-09-01T11:26:22.756Z,24.25
2022-09-01T11:28:50.077Z,24.22
2022-09-01T11:31:29.151Z,24.17
2022-09-01T11:34:04.253Z,24.15
2022-09-01T11:36:36.369Z,24.16
2022-09-01T11:39:08.241Z,24.12
2022-09-01T11:41:43.018Z,24.07
2022-09-01T11:44:31.107Z,24.13
2022-09-01T11:47:14.416Z,24.19
2022-09-01T11:49:50.705Z,24.20
2022-09-01T11:52:20.136Z,24.20
2022-09-01T11:54:47.261Z,24.25
2022-09-01T11:57:19.752Z,24.24
2022-09-01T11:59:47.004Z,24.21
2022-09-01T12:02:36.990Z,24.25
2022-09-01T12:05:25.713Z,24.31
2022-09-01T12:07:53.520Z,24.35
2022-09-01T12:10:33.884Z,24.36
2022-09-01T12:13:23.087Z,24.39
2022-09-01T12:16:22.229Z,24.43
2022-09-01T12:18:52.921Z,24.44
2022-09-01T12:21:25.263Z,24.43
2022-09-01T12:23:52.993Z,24.48
2022-09-01T12:26:30.609Z,24.55
2022-09-01T12:28:57.786Z,24.64
2022-09-01T12:31:26.612Z,24.63
2022-09-01T12:33:56.036Z,24.70
2022-09-01T12:36:30.074Z,24.74
2022-09-01T12:39:18.146Z,24.60
2022-09-01T12:42:06.920Z,24.46
2022-09-01T12:44:39.799Z,24.51
2022-09-01T12:47:10.524Z,24.54
2022-09-01T12:49:50.758Z,24.60
2022-09-01T12:52:22.322Z,24.63
2022-09-01T12:55:11.623Z,24.60
2022-09-01T12:57:45.653Z,24.55
2022-09-01T13:00:13.102Z,24.54
2022-09-01T13:02:50.095Z,24.52
2022-09-01T13:05:31.097Z,24.51
2022-09-01T13:08:04.454Z,24.51
2022-09-01T13:10:35.176Z,24.51
2022-09-01T13:13:02.303Z,24.54
2022-09-01T13:15:29.415Z,24.61
2022-09-01T13:17:56.521Z,24.64
2022-09-01T13:20:24.136Z,24.69
2022-09-01T13:22:51.669Z,24.71
2022-09-01T13:25:20.868Z,24.71
2022-09-01T13:27:48.469Z,24.68
2022-09-01T13:30:18.796Z,24.70
2022-09-01T13:35:34.752Z,24.87
2022-09-01T13:38:02.029Z,24.99
2022-09-01T13:40:29.129Z,24.99
2022-09-01T13:42:56.326Z,24.91
2022-09-01T13:45:25.783Z,24.89
2022-09-01T13:53:28.256Z,24.70
2022-09-01T13:55:55.337Z,24.66
2022-09-01T13:58:22.544Z,24.68
2022-09-01T14:00:51.253Z,24.73
2022-09-01T14:03:23.861Z,24.89
2022-09-01T14:05:51.479Z,25.04
2022-09-01T14:08:21.740Z,25.00
2022-09-01T14:10:51.927Z,24.90
2022-09-01T14:13:21.589Z,24.87
2022-09-01T14:15:49.530Z,24.98
2022-09-01T14:18:17.676Z,25.03
2022-09-01T14:20:47.750Z,25.04
2022-09-01T14:23:15.971Z,24.97
2022-09-01T14:25:46.856Z,24.90
2022-09-01T14:28:14.535Z,24.84
2022-09-01T14:30:43.831Z,24.73
2022-09-01T14:33:11.272Z,24.61
2022-09-01T14:35:45.304Z,24.56
2022-09-01T14:38:14.276Z,24.52
2022-09-01T14:40:43.295Z,24.42
2022-09-01T14:43:14.589Z,24.37
2022-09-01T14:45:46.188Z,24.39
2022-09-01T14:48:14.609Z,24.46
2022-09-01T14:50:44.286Z,24.53
2022-09-01T14:53:12.669Z,24.63
2022-09-01T14:55:43.622Z,24.67
2022-09-01T14:58:10.991Z,24.73
2022-09-01T15:00:42.135Z,24.60
2022-09-01T15:03:10.051Z,24.61
2022-09-01T15:05:39.860Z,24.64
2022-09-01T15:08:08.413Z,24.64
2022-09-01T15:10:36.826Z,24.66
2022-09-01T15:13:04.733Z,24.56
2022-09-01T15:15:32.574Z,24.50
2022-09-01T15:18:00.997Z,24.52
2022-09-01T15:20:47.681Z,24.61
2022-09-01T15:23:18.427Z,24.71
2022-09-01T15:25:45.547Z,24.70
2022-09-01T15:28:13.267Z,24.62
2022-09-01T15:30:41.379Z,24.58
2022-09-01T15:33:13.336Z,24.57
2022-09-01T15:35:43.009Z,24.60
2022-09-01T15:38:10.634Z,24.67
2022-09-01T15:40:45.427Z,24.78
2022-09-01T15:43:21.323Z,24.87
2022-09-01T15:45:48.810Z,24.94
2022-09-01T15:48:16.137Z,24.92
2022-09-01T15:50:43.257Z,24.90
2022-09-01T15:53:13.459Z,24.97
2022-09-01T15:55:45.916Z,25.13
2022-09-01T15:58:15.565Z,25.23
2022-09-01T16:00:44.535Z,25.29
2022-09-01T16:03:12.159Z,25.42
2022-09-01T16:05:40.118Z,25.47
2022-09-01T16:08:11.892Z,25.45
2022-09-01T16:10:42.520Z,25.43
2022-09-01T16:13:11.071Z,25.44
2022-09-01T16:15:47.339Z,25.39
2022-09-01T16:18:14.328Z,25.14
2022-09-01T16:21:03.080Z,25.08
2022-09-01T16:23:42.191Z,25.08
2022-09-01T16:26:09.781Z,25.08
2022-09-01T16:28:38.190Z,25.17
2022-09-01T16:31:12.686Z,25.26
2022-09-01T16:33:43.331Z,25.26
2022-09-01T16:36:17.922Z,25.18
2022-09-01T16:38:50.306Z,25.14
2022-09-01T16:41:44.750Z,25.19
2022-09-01T16:44:38.022Z,25.21
2022-09-01T16:47:26.010Z,25.18
2022-09-01T16:50:16.449Z,25.19
2022-09-01T16:53:14.433Z,25.18
2022-09-01T16:56:08.339Z,25.13
2022-09-01T16:58:48.903Z,25.11
2022-09-01T17:02:02.951Z,25.02
2022-09-01T17:04:42.516Z,25.00
2022-09-01T17:07:15.461Z,24.96
2022-09-01T17:09:46.318Z,24.95
2022-09-01T17:12:41.141Z,24.98
2022-09-01T17:15:14.813Z,25.01
2022-09-01T17:18:05.358Z,25.09
2022-09-01T17:20:40.406Z,25.17
2022-09-01T17:23:12.342Z,25.23
2022-09-01T17:25:54.305Z,25.27
2022-09-01T17:28:30.366Z,25.25
2022-09-01T17:31:06.146Z,25.26
2022-09-01T17:33:55.475Z,25.29
2022-09-01T17:36:47.161Z,25.21
2022-09-01T17:39:45.205Z,25.14
2022-09-01T17:42:54.121Z,25.07
2022-09-01T17:45:30.450Z,24.95
2022-09-01T17:48:12.740Z,24.92
2022-09-01T17:51:03.678Z,24.89
2022-09-01T17:53:44.249Z,24.86
2022-09-01T17:56:45.923Z,24.78
2022-09-01T17:59:25.324Z,24.68
2022-09-01T18:02:10.245Z,24.55
2022-09-01T18:04:57.681Z,24.44
2022-09-01T18:07:56.861Z,24.43
2022-09-01T18:10:32.893Z,24.53
2022-09-01T18:13:04.415Z,24.55
2022-09-01T18:15:45.631Z,24.55
2022-09-01T18:18:54.721Z,24.59
2022-09-01T18:21:26.692Z,24.65
2022-09-01T18:24:18.398Z,24.71
2022-09-01T18:26:49.042Z,24.77
2022-09-01T18:29:16.463Z,24.71
2022-09-01T18:32:05.196Z,24.61
2022-09-01T18:34:38.132Z,24.55
2022-09-01T18:37:33.229Z,24.44
2022-09-01T18:40:25.213Z,24.47
2022-09-01T18:42:55.021Z,24.46
2022-09-01T18:45:37.672Z,24.50
2022-09-01T18:48:33.934Z,24.47
2022-09-01T18:51:19.821Z,24.44
2022-09-01T18:54:11.758Z,24.38
2022-09-01T18:56:47.505Z,24.38
2022-09-01T18:59:14.597Z,24.40
2022-09-01T19:01:54.476Z,24.31
2022-09-01T19:04:21.553Z,24.32
2022-09-01T19:07:08.914Z,24.38
2022-09-01T19:09:49.903Z,24.39
2022-09-01T19:12:31.313Z,24.35
2022-09-01T19:15:12.108Z,24.31
2022-09-01T19:18:06.227Z,24.27
2022-09-01T19:27:28.679Z,24.21
2022-09-01T19:30:02.353Z,24.23
2022-09-01T19:32:30.772Z,24.27
2022-09-01T19:35:13.616Z,24.31
2022-09-01T19:37:41.567Z,24.30
2022-09-01T19:40:10.573Z,24.16
2022-09-01T19:42:40.175Z,24.15
2022-09-01T19:45:21.058Z,24.11
2022-09-01T19:47:54.374Z,24.09
2022-09-01T19:50:24.784Z,24.10
2022-09-01T19:53:00.841Z,24.07
2022-09-01T19:55:31.858Z,24.05
2022-09-01T19:58:19.590Z,24.00
2022-09-01T20:00:55.468Z,23.96
2022-09-01T20:03:24.811Z,23.99
2022-09-01T20:06:00.708Z,24.00
2022-09-01T20:08:59.191Z,24.04
2022-09-01T20:11:45.199Z,24.04
2022-09-01T20:14:37.361Z,24.05
2022-09-01T20:17:08.360Z,24.07
2022-09-01T20:19:47.209Z,24.09
2022-09-01T20:22:33.930Z,24.08
2022-09-01T20:25:22.671Z,24.01
2022-09-01T20:27:58.125Z,24.02
2022-09-01T20:30:37.397Z,24.08
2022-09-01T20:33:09.334Z,24.08
2022-09-01T20:36:01.484Z,24.08
2022-09-01T20:39:09.967Z,24.09
2022-09-01T20:41:50.590Z,24.08
2022-09-01T20:44:40.841Z,24.10
2022-09-01T20:47:07.952Z,24.11
2022-09-01T20:49:38.616Z,24.10
2022-09-01T20:52:32.728Z,24.10
2022-09-01T20:55:25.282Z,24.15
2022-09-01T20:58:07.415Z,24.16
2022-09-01T21:00:47.371Z,24.18
2022-09-01T21:06:56.037Z,24.30
2022-09-01T21:09:45.972Z,24.35
2022-09-01T21:12:24.428Z,24.40
2022-09-01T21:21:36.321Z,24.57
2022-09-01T21:24:04.813Z,24.57
2022-09-01T21:26:34.130Z,24.53
2022-09-01T21:29:19.547Z,24.54
2022-09-01T21:31:47.943Z,24.58
2022-09-01T21:34:16.931Z,24.59
2022-09-01T21:36:44.132Z,24.54
2022-09-01T21:39:12.245Z,24.49
2022-09-01T21:41:39.527Z,24.46
2022-09-01T21:44:06.928Z,24.49
2022-09-01T21:46:34.179Z,24.52
2022-09-01T21:49:01.185Z,24.52
2022-09-01T21:51:28.382Z,24.52
2022-09-01T21:53:55.396Z,24.55
2022-09-01T21:56:25.913Z,24.56
2022-09-01T22:04:38.284Z,24.66
2022-09-01T22:07:06.787Z,24.67
2022-09-01T22:09:33.995Z,24.68
2022-09-01T22:12:01.061Z,24.72
2022-09-01T22:14:29.469Z,24.69
2022-09-01T22:16:59.078Z,24.68
2022-09-01T22:19:28.542Z,24.69
2022-09-01T22:21:55.524Z,24.70
2022-09-01T22:24:23.425Z,24.72
2022-09-01T22:26:50.537Z,24.72
2022-09-01T22:29:18.646Z,24.67
2022-09-01T22:31:46.168Z,24.64
2022-09-01T22:34:13.354Z,24.59
2022-09-01T22:36:44.813Z,24.57
2022-09-01T22:39:12.794Z,24.38
2022-09-01T22:41:41.324Z,24.29
2022-09-01T22:44:10.055Z,24.29
2022-09-01T22:46:38.807Z,24.35
2022-09-01T22:49:06.832Z,24.38
2022-09-01T22:51:34.372Z,24.30
2022-09-01T22:54:01.410Z,24.26
2022-09-01T22:56:46.376Z,24.31
2022-09-01T22:59:15.604Z,24.30
2022-09-01T23:01:46.194Z,24.35
2022-09-01T23:04:15.129Z,24.42
2022-09-01T23:06:46.438Z,24.49
2022-09-01T23:09:14.897Z,24.47
2022-09-01T23:11:42.864Z,24.50
2022-09-01T23:14:10.486Z,24.48
2022-09-01T23:16:37.835Z,24.49
2022-09-01T23:19:05.936Z,24.55
2022-09-01T23:21:36.558Z,24.54
2022-09-01T23:24:03.964Z,24.53
2022-09-01T23:26:32.332Z,24.50
2022-09-01T23:28:59.858Z,24.53
2022-09-01T23:31:30.192Z,24.56
2022-09-01T23:39:39.887Z,24.52
2022-09-01T23:42:07.126Z,24.49
2022-09-01T23:44:34.455Z,24.41
2022-09-01T23:47:01.683Z,24.33
2022-09-01T23:49:29.111Z,24.23
2022-09-01T23:51:56.137Z,24.16
2022-09-01T23:54:23.832Z,24.11
2022-09-01T23:56:50.931Z,24.08
2022-09-01T23:59:18.106Z,24.09
